createdAt,value
2019-03-03T00:03:13.679Z,7.95
2019-03-03T00:08:19.239Z,7.97
2019-03-03T00:13:24.454Z,8.00
2019-03-03T00:18:30.141Z,7.98
2019-03-03T00:23:45.561Z,8.03
2019-03-03T00:28:51.522Z,8.05
2019-03-03T00:33:56.550Z,8.07
2019-03-03T00:39:13.916Z,8.06
2019-03-03T00:44:41.070Z,8.10
2019-03-03T00:50:08.188Z,8.15
2019-03-03T00:55:26.401Z,8.15
2019-03-03T01:00:50.995Z,8.23
2019-03-03T01:06:18.560Z,8.23
2019-03-03T01:11:41.708Z,8.25
2019-03-03T01:17:18.099Z,8.30
2019-03-03T01:22:42.064Z,8.28
2019-03-03T01:27:47.183Z,8.39
2019-03-03T01:32:52.189Z,8.46
2019-03-03T01:37:57.256Z,8.63
2019-03-03T01:43:04.583Z,8.78
2019-03-03T01:48:09.626Z,8.75
2019-03-03T01:53:14.686Z,8.86
2019-03-03T01:58:20.408Z,8.93
2019-03-03T02:03:26.148Z,8.86
2019-03-03T02:08:31.289Z,8.93
2019-03-03T02:13:36.370Z,8.92
2019-03-03T02:18:41.420Z,8.86
2019-03-03T02:23:46.816Z,8.83
2019-03-03T02:28:51.895Z,8.81
2019-03-03T02:33:56.952Z,8.84
2019-03-03T02:39:01.960Z,8.82
2019-03-03T02:44:08.564Z,8.82
2019-03-03T02:49:13.618Z,8.85
2019-03-03T02:54:18.613Z,8.88
2019-03-03T02:59:23.695Z,8.84
2019-03-03T03:04:30.416Z,8.81
2019-03-03T03:09:42.948Z,8.81
2019-03-03T03:15:25.045Z,8.87
2019-03-03T03:20:49.378Z,8.94
2019-03-03T03:26:13.619Z,8.87
2019-03-03T03:31:30.731Z,8.87
2019-03-03T03:36:54.708Z,8.95
2019-03-03T03:42:28.299Z,8.96
2019-03-03T03:47:53.268Z,8.98
2019-03-03T03:53:23.325Z,9.04
2019-03-03T03:58:33.308Z,9.09
2019-03-03T04:03:44.361Z,9.06
2019-03-03T04:09:03.768Z,9.10
2019-03-03T04:14:24.817Z,9.07
2019-03-03T04:19:52.017Z,9.09
2019-03-03T04:25:08.504Z,9.20
2019-03-03T04:30:19.012Z,9.26
2019-03-03T04:35:34.178Z,9.31
2019-03-03T04:40:56.943Z,9.32
2019-03-03T04:46:23.340Z,9.35
2019-03-03T04:51:42.934Z,9.35
2019-03-03T04:57:13.240Z,9.41
2019-03-03T05:02:46.143Z,9.42
2019-03-03T05:08:15.149Z,9.52
2019-03-03T05:13:26.410Z,9.51
2019-03-03T05:18:53.931Z,9.49
2019-03-03T05:23:59.705Z,9.55
2019-03-03T05:29:04.943Z,9.49
2019-03-03T05:34:10.028Z,9.44
2019-03-03T05:39:15.394Z,9.39
2019-03-03T05:44:20.593Z,9.39
2019-03-03T05:49:25.782Z,9.28
2019-03-03T05:54:31.052Z,9.27
2019-03-03T05:59:36.122Z,9.24
2019-03-03T06:04:41.213Z,9.26
2019-03-03T06:09:46.472Z,9.14
2019-03-03T06:14:51.763Z,9.19
2019-03-03T06:19:57.004Z,9.24
2019-03-03T06:25:02.493Z,9.23
2019-03-03T06:30:08.951Z,9.31
2019-03-03T06:35:14.007Z,9.34
2019-03-03T06:40:19.279Z,9.39
2019-03-03T06:45:24.754Z,9.45
2019-03-03T06:50:30.208Z,9.50
2019-03-03T06:55:35.798Z,9.55
2019-03-03T07:00:41.278Z,9.57
2019-03-03T07:05:46.488Z,9.63
2019-03-03T07:10:51.906Z,9.64
2019-03-03T07:15:57.305Z,9.76
2019-03-03T07:21:02.563Z,9.77
2019-03-03T07:26:07.810Z,9.79
2019-03-03T07:31:13.392Z,9.87
2019-03-03T07:36:18.763Z,9.94
2019-03-03T07:41:24.087Z,9.92
2019-03-03T07:46:29.627Z,10.07
2019-03-03T07:51:35.109Z,10.11
2019-03-03T07:56:40.480Z,10.20
2019-03-03T08:01:45.669Z,10.26
2019-03-03T08:06:50.966Z,10.30
2019-03-03T08:11:56.078Z,10.34
2019-03-03T08:17:01.288Z,10.39
2019-03-03T08:22:06.633Z,10.36
2019-03-03T08:27:11.975Z,10.36
2019-03-03T08:32:17.404Z,10.51
2019-03-03T08:37:24.212Z,10.53
2019-03-03T08:42:54.125Z,10.73
2019-03-03T08:48:06.940Z,10.93
2019-03-03T08:53:39.767Z,11.07
2019-03-03T08:58:50.429Z,11.14
2019-03-03T09:04:14.055Z,11.25
2019-03-03T09:09:41.070Z,11.31
2019-03-03T09:15:04.007Z,11.36
2019-03-03T09:20:43.702Z,11.39
2019-03-03T09:26:10.920Z,11.53
2019-03-03T09:31:38.168Z,11.59
2019-03-03T09:37:02.202Z,11.78
2019-03-03T09:42:28.935Z,11.74
2019-03-03T09:47:52.906Z,11.69
2019-03-03T09:53:14.335Z,11.62
2019-03-03T09:58:29.365Z,11.58
2019-03-03T10:03:44.273Z,11.65
2019-03-03T10:09:09.707Z,11.61
2019-03-03T10:14:26.413Z,11.55
2019-03-03T10:19:47.748Z,11.44
2019-03-03T10:25:06.216Z,11.38
2019-03-03T10:30:31.970Z,11.40
2019-03-03T10:36:02.095Z,11.53
2019-03-03T10:41:44.259Z,11.56
2019-03-03T10:47:11.535Z,11.61
2019-03-03T10:52:25.404Z,11.62
2019-03-03T10:57:43.268Z,11.68
2019-03-03T11:03:06.283Z,11.67
2019-03-03T11:08:22.730Z,11.83
2019-03-03T11:13:53.131Z,11.77
2019-03-03T11:19:05.170Z,12.00
2019-03-03T11:24:22.587Z,12.12
2019-03-03T11:29:47.106Z,12.09
2019-03-03T11:35:20.828Z,12.09
2019-03-03T11:40:45.494Z,11.91
2019-03-03T11:46:06.998Z,11.84
2019-03-03T11:51:30.321Z,11.66
2019-03-03T11:56:46.169Z,11.61
2019-03-03T12:02:05.512Z,11.57
2019-03-03T12:07:24.657Z,11.53
2019-03-03T12:12:47.898Z,11.43
2019-03-03T12:18:08.966Z,11.40
2019-03-03T12:23:32.254Z,11.40
2019-03-03T12:28:56.631Z,11.41
2019-03-03T12:34:16.288Z,11.42
2019-03-03T12:39:37.666Z,11.41
2019-03-03T12:44:57.348Z,11.52
2019-03-03T12:50:21.784Z,11.53
2019-03-03T12:55:42.505Z,11.60
2019-03-03T13:01:13.341Z,11.67
2019-03-03T13:06:36.476Z,11.74
2019-03-03T13:12:11.766Z,11.69
2019-03-03T13:17:33.528Z,11.64
2019-03-03T13:22:48.781Z,11.67
2019-03-03T13:28:05.438Z,11.69
2019-03-03T13:33:22.950Z,11.75
2019-03-03T13:38:50.351Z,11.74
2019-03-03T13:43:55.846Z,11.77
2019-03-03T13:49:01.694Z,11.70
2019-03-03T13:54:07.279Z,11.74
2019-03-03T13:59:19.726Z,11.85
2019-03-03T14:04:25.219Z,11.71
2019-03-03T14:09:30.783Z,11.75
2019-03-03T14:14:36.272Z,11.73
2019-03-03T14:19:41.796Z,11.87
2019-03-03T14:24:47.032Z,11.80
2019-03-03T14:29:52.880Z,11.81
2019-03-03T14:34:59.088Z,11.89
2019-03-03T14:40:04.370Z,11.89
2019-03-03T14:45:12.307Z,11.95
2019-03-03T14:50:18.109Z,11.94
2019-03-03T14:55:23.433Z,11.95
2019-03-03T15:00:30.563Z,11.84
2019-03-03T15:05:36.103Z,11.89
2019-03-03T15:10:43.403Z,11.81
2019-03-03T15:15:48.888Z,11.85
2019-03-03T15:20:54.221Z,11.87
2019-03-03T15:25:59.621Z,11.85
2019-03-03T15:31:04.902Z,11.86
2019-03-03T15:36:10.287Z,11.95
2019-03-03T15:41:16.192Z,11.89
2019-03-03T15:46:21.663Z,11.84
2019-03-03T15:51:26.846Z,11.81
2019-03-03T15:56:32.379Z,11.81
2019-03-03T16:01:38.991Z,11.80
2019-03-03T16:06:44.354Z,11.76
2019-03-03T16:11:49.489Z,11.74
2019-03-03T16:16:54.618Z,11.62
2019-03-03T16:21:59.701Z,11.61
2019-03-03T16:27:04.977Z,11.66
2019-03-03T16:32:10.084Z,11.67
2019-03-03T16:37:15.079Z,11.59
2019-03-03T16:42:20.624Z,11.55
2019-03-03T16:47:27.082Z,11.54
2019-03-03T16:52:32.335Z,11.53
2019-03-03T16:57:37.902Z,11.52
2019-03-03T17:02:43.129Z,11.51
2019-03-03T17:07:48.429Z,11.54
2019-03-03T17:12:54.334Z,11.36
2019-03-03T17:17:59.805Z,11.33
2019-03-03T17:23:05.217Z,11.35
2019-03-03T17:28:10.704Z,11.39
2019-03-03T17:33:16.319Z,11.41
2019-03-03T17:38:21.865Z,11.38
2019-03-03T17:43:27.654Z,11.31
2019-03-03T17:48:33.289Z,11.31
2019-03-03T17:53:38.719Z,11.34
2019-03-03T17:58:44.094Z,11.29
2019-03-03T18:03:49.290Z,11.31
2019-03-03T18:08:54.707Z,11.33
2019-03-03T18:14:00.259Z,11.42
2019-03-03T18:19:05.867Z,11.35
2019-03-03T18:24:11.425Z,11.35
2019-03-03T18:29:17.167Z,11.44
2019-03-03T18:34:22.469Z,11.37
2019-03-03T18:39:27.895Z,11.39
2019-03-03T18:44:33.380Z,11.42
2019-03-03T18:49:38.741Z,11.45
2019-03-03T18:54:43.984Z,11.38
2019-03-03T18:59:49.227Z,11.39
2019-03-03T19:04:54.212Z,11.41
2019-03-03T19:09:59.426Z,11.44
2019-03-03T19:15:05.091Z,11.49
2019-03-03T19:20:11.448Z,11.51
2019-03-03T19:25:16.836Z,11.47
2019-03-03T19:30:23.826Z,11.48
2019-03-03T19:35:29.342Z,11.38
2019-03-03T19:40:35.117Z,11.35
2019-03-03T19:45:40.221Z,11.31
2019-03-03T19:50:45.312Z,11.28
2019-03-03T19:55:50.807Z,11.24
2019-03-03T20:00:56.858Z,11.36
2019-03-03T20:06:03.048Z,11.37
2019-03-03T20:11:08.063Z,11.41
2019-03-03T20:16:13.323Z,11.44
2019-03-03T20:21:19.062Z,11.40
2019-03-03T20:26:24.243Z,11.46
2019-03-03T20:31:29.423Z,11.42
2019-03-03T20:36:34.570Z,11.45
2019-03-03T20:41:40.009Z,11.42
2019-03-03T20:46:45.679Z,11.40
2019-03-03T20:51:51.944Z,11.35
2019-03-03T20:56:56.942Z,11.31
2019-03-03T21:02:02.509Z,11.32
2019-03-03T21:07:07.701Z,11.35
2019-03-03T21:12:12.751Z,11.33
2019-03-03T21:17:17.797Z,11.33
2019-03-03T21:22:22.869Z,11.31
2019-03-03T21:27:27.865Z,11.30
2019-03-03T21:32:33.674Z,11.32
2019-03-03T21:37:38.843Z,11.26
2019-03-03T21:42:44.051Z,11.29
2019-03-03T21:47:49.215Z,11.31
2019-03-03T21:52:54.298Z,11.38
2019-03-03T21:57:59.398Z,11.45
2019-03-03T22:03:07.889Z,11.50
2019-03-03T22:08:15.371Z,11.49
2019-03-03T22:13:20.882Z,11.49
2019-03-03T22:18:28.490Z,11.57
2019-03-03T22:23:33.967Z,11.50
2019-03-03T22:28:39.081Z,11.47
2019-03-03T22:33:44.158Z,11.50
2019-03-03T22:38:49.260Z,11.48
2019-03-03T22:43:54.293Z,11.44
2019-03-03T22:48:59.344Z,11.47
2019-03-03T22:54:04.375Z,11.50
2019-03-03T22:59:09.401Z,11.47
2019-03-03T23:04:47.943Z,11.47
2019-03-03T23:10:23.282Z,11.49
2019-03-03T23:15:58.155Z,11.50
2019-03-03T23:21:41.355Z,11.45
2019-03-03T23:26:46.836Z,11.39
2019-03-03T23:31:52.020Z,11.40
2019-03-03T23:36:57.004Z,11.37
2019-03-03T23:42:02.185Z,11.35
2019-03-03T23:47:07.243Z,11.33
2019-03-03T23:52:12.552Z,11.29
2019-03-03T23:57:17.869Z,11.25
